createdAt,value
2018-08-30T00:01:56.653Z,13.53
2018-08-30T00:04:24.733Z,13.47
2018-08-30T00:06:52.807Z,13.67
2018-08-30T00:09:20.894Z,13.30
2018-08-30T00:11:49.004Z,13.33
2018-08-30T00:14:17.134Z,13.67
2018-08-30T00:16:45.238Z,13.50
2018-08-30T00:19:13.358Z,14.13
2018-08-30T00:21:42.605Z,13.00
2018-08-30T00:24:10.723Z,13.13
2018-08-30T00:26:38.818Z,13.07
2018-08-30T00:29:06.911Z,13.53
2018-08-30T00:31:34.998Z,13.13
2018-08-30T00:34:03.122Z,13.80
2018-08-30T00:36:31.287Z,13.33
2018-08-30T00:38:59.414Z,13.10
2018-08-30T00:41:27.676Z,13.57
2018-08-30T00:43:55.761Z,13.10
2018-08-30T00:46:23.901Z,13.37
2018-08-30T00:48:52.018Z,12.83
2018-08-30T00:51:20.184Z,12.23
2018-08-30T00:53:48.393Z,12.67
2018-08-30T00:56:17.537Z,12.97
2018-08-30T00:58:45.604Z,13.23
2018-08-30T01:01:13.738Z,13.07
2018-08-30T01:03:41.832Z,12.77
2018-08-30T01:06:10.005Z,12.90
2018-08-30T01:08:38.160Z,13.13
2018-08-30T01:11:06.638Z,12.43
2018-08-30T01:13:34.715Z,13.40
2018-08-30T01:16:02.807Z,12.67
2018-08-30T01:18:30.985Z,13.87
2018-08-30T01:20:59.093Z,12.53
2018-08-30T01:23:27.218Z,12.03
2018-08-30T01:25:55.379Z,12.93
2018-08-30T01:28:23.492Z,12.40
2018-08-30T01:30:51.604Z,13.20
2018-08-30T01:33:19.784Z,13.17
2018-08-30T01:35:47.913Z,12.43
2018-08-30T01:38:16.032Z,13.20
2018-08-30T01:40:44.189Z,13.17
2018-08-30T01:43:12.352Z,13.70
2018-08-30T01:45:40.507Z,13.03
2018-08-30T01:48:08.677Z,12.67
2018-08-30T01:50:36.785Z,12.00
2018-08-30T01:53:04.981Z,13.57
2018-08-30T01:55:33.109Z,12.60
2018-08-30T01:58:01.201Z,11.77
2018-08-30T02:00:29.325Z,11.97
2018-08-30T02:02:57.474Z,12.63
2018-08-30T02:05:25.625Z,11.90
2018-08-30T02:07:53.979Z,12.03
2018-08-30T02:10:22.110Z,11.97
2018-08-30T02:12:50.257Z,11.93
2018-08-30T02:15:18.413Z,12.23
2018-08-30T02:17:46.615Z,12.60
2018-08-30T02:20:14.744Z,13.40
2018-08-30T02:22:42.840Z,12.53
2018-08-30T02:25:10.976Z,12.50
2018-08-30T02:27:39.211Z,13.13
2018-08-30T02:30:07.302Z,12.83
2018-08-30T02:32:35.440Z,13.37
2018-08-30T02:35:03.546Z,12.97
2018-08-30T02:37:32.694Z,13.27
2018-08-30T02:40:00.935Z,13.40
2018-08-30T02:42:29.110Z,13.53
2018-08-30T02:44:57.201Z,13.93
2018-08-30T02:47:25.339Z,13.50
2018-08-30T02:49:53.846Z,14.40
2018-08-30T02:52:22.003Z,13.00
2018-08-30T02:54:50.114Z,14.83
2018-08-30T02:57:18.227Z,14.67
2018-08-30T02:59:46.327Z,14.00
2018-08-30T03:02:14.511Z,14.60
2018-08-30T03:04:42.612Z,13.40
2018-08-30T03:07:10.784Z,13.60
2018-08-30T03:09:39.006Z,13.90
2018-08-30T03:12:07.119Z,13.60
2018-08-30T03:14:35.322Z,13.63
2018-08-30T03:17:03.635Z,14.27
2018-08-30T03:19:31.849Z,14.00
2018-08-30T03:22:01.195Z,13.50
2018-08-30T03:24:29.404Z,14.53
2018-08-30T03:26:57.622Z,13.73
2018-08-30T03:29:25.768Z,13.30
2018-08-30T03:31:53.949Z,13.30
2018-08-30T03:34:22.090Z,15.17
2018-08-30T03:36:50.211Z,15.67
2018-08-30T03:39:18.350Z,15.77
2018-08-30T03:41:46.439Z,15.30
2018-08-30T03:44:14.568Z,15.73
2018-08-30T03:46:42.662Z,14.60
2018-08-30T03:49:10.781Z,15.37
2018-08-30T03:51:38.883Z,14.47
2018-08-30T03:54:07.006Z,16.10
2018-08-30T03:56:35.083Z,14.33
2018-08-30T03:59:03.206Z,15.93
2018-08-30T04:01:31.304Z,16.13
2018-08-30T04:03:59.430Z,16.30
2018-08-30T04:06:27.681Z,17.00
2018-08-30T04:08:55.825Z,16.57
2018-08-30T04:11:24.000Z,16.27
2018-08-30T04:13:52.127Z,15.23
2018-08-30T04:16:20.321Z,15.70
2018-08-30T04:18:52.700Z,16.50
2018-08-30T04:21:20.807Z,16.20
2018-08-30T04:23:49.044Z,15.00
2018-08-30T04:26:17.139Z,15.43
2018-08-30T04:28:45.274Z,14.30
2018-08-30T04:31:13.398Z,14.87
2018-08-30T04:33:41.522Z,15.60
2018-08-30T04:36:09.703Z,16.33
2018-08-30T04:38:37.835Z,16.63
2018-08-30T04:41:06.119Z,16.10
2018-08-30T04:43:34.222Z,16.43
2018-08-30T04:46:02.319Z,15.90
2018-08-30T04:48:30.518Z,15.80
2018-08-30T04:50:58.630Z,17.13
2018-08-30T04:53:26.723Z,15.90
2018-08-30T04:55:54.797Z,16.07
2018-08-30T04:58:22.890Z,15.77
2018-08-30T05:00:51.093Z,16.97
2018-08-30T05:03:19.197Z,17.20
2018-08-30T05:05:47.271Z,17.30
2018-08-30T05:08:15.416Z,18.00
2018-08-30T05:10:44.480Z,19.13
2018-08-30T05:13:12.661Z,18.27
2018-08-30T05:15:40.734Z,18.43
2018-08-30T05:18:08.902Z,18.43
2018-08-30T05:20:37.370Z,17.87
2018-08-30T05:23:05.591Z,18.60
2018-08-30T05:25:33.714Z,18.23
2018-08-30T05:28:01.833Z,16.07
2018-08-30T05:30:29.925Z,17.50
2018-08-30T05:32:58.150Z,16.93
2018-08-30T05:35:26.276Z,16.80
2018-08-30T05:37:54.362Z,18.40
2018-08-30T05:40:22.450Z,18.47
2018-08-30T05:42:50.551Z,18.83
2018-08-30T05:45:18.763Z,17.20
2018-08-30T05:47:46.921Z,18.23
2018-08-30T05:50:15.016Z,19.70
2018-08-30T05:52:43.129Z,19.90
2018-08-30T05:55:11.416Z,19.57
2018-08-30T05:57:39.534Z,19.70
2018-08-30T06:00:07.845Z,19.53
2018-08-30T06:02:35.960Z,20.93
2018-08-30T06:05:04.110Z,25.07
2018-08-30T06:07:32.223Z,22.80
2018-08-30T06:10:00.379Z,20.67
2018-08-30T06:12:28.526Z,21.60
2018-08-30T06:14:57.325Z,21.67
2018-08-30T06:17:25.563Z,27.27
2018-08-30T06:19:53.706Z,23.13
2018-08-30T06:22:21.911Z,30.90
2018-08-30T06:24:49.989Z,30.57
2018-08-30T06:27:18.134Z,28.80
2018-08-30T06:29:46.226Z,27.30
2018-08-30T06:32:14.335Z,26.93
2018-08-30T06:34:42.464Z,27.73
2018-08-30T06:37:10.535Z,29.40
2018-08-30T06:39:38.678Z,29.40
2018-08-30T06:42:06.776Z,29.27
2018-08-30T06:44:34.966Z,30.50
2018-08-30T06:47:03.035Z,33.90
2018-08-30T06:49:31.126Z,35.30
2018-08-30T06:51:59.250Z,41.07
2018-08-30T06:54:27.352Z,36.17
2018-08-30T06:56:55.488Z,39.60
2018-08-30T06:59:23.566Z,35.63
2018-08-30T07:01:51.680Z,30.63
2018-08-30T07:04:19.998Z,31.37
2018-08-30T07:06:48.014Z,30.83
2018-08-30T07:09:16.155Z,31.93
2018-08-30T07:11:44.294Z,28.53
2018-08-30T07:14:12.595Z,30.60
2018-08-30T07:16:40.694Z,30.07
2018-08-30T07:19:08.904Z,31.87
2018-08-30T07:21:36.984Z,31.47
2018-08-30T07:24:05.126Z,31.77
2018-08-30T07:26:33.175Z,31.33
2018-08-30T07:29:01.314Z,30.77
2018-08-30T07:31:29.454Z,31.53
2018-08-30T07:33:57.553Z,31.40
2018-08-30T07:36:25.709Z,32.70
2018-08-30T07:38:53.797Z,32.23
2018-08-30T07:41:21.933Z,34.63
2018-08-30T07:43:50.059Z,35.07
2018-08-30T07:46:18.226Z,33.97
2018-08-30T07:48:46.294Z,33.27
2018-08-30T07:51:14.504Z,34.10
2018-08-30T07:53:42.620Z,37.13
2018-08-30T07:56:10.858Z,34.27
2018-08-30T07:58:38.977Z,37.03
2018-08-30T08:01:07.158Z,39.83
2018-08-30T08:03:35.266Z,39.13
2018-08-30T08:06:03.497Z,38.53
2018-08-30T08:08:31.578Z,39.30
2018-08-30T08:10:59.651Z,37.53
2018-08-30T08:13:27.821Z,37.77
2018-08-30T08:15:55.955Z,36.07
2018-08-30T08:18:24.053Z,34.93
2018-08-30T08:20:52.231Z,36.23
2018-08-30T08:23:20.341Z,36.73
2018-08-30T08:25:48.428Z,35.77
2018-08-30T08:28:16.593Z,35.57
2018-08-30T08:30:44.707Z,36.43
2018-08-30T08:33:12.933Z,36.93
2018-08-30T08:35:41.038Z,38.27
2018-08-30T08:38:09.176Z,39.67
2018-08-30T08:40:37.286Z,38.77
2018-08-30T08:43:05.391Z,38.50
2018-08-30T08:45:33.498Z,43.20
2018-08-30T08:48:01.561Z,39.40
2018-08-30T08:50:29.660Z,41.97
2018-08-30T08:52:57.827Z,38.27
2018-08-30T08:55:25.998Z,40.27
2018-08-30T08:57:54.785Z,39.40
2018-08-30T09:00:22.907Z,45.70
2018-08-30T09:02:50.990Z,45.60
2018-08-30T09:05:19.190Z,46.13
2018-08-30T09:07:47.306Z,45.73
2018-08-30T09:10:15.378Z,49.67
2018-08-30T09:12:43.543Z,46.27
2018-08-30T09:15:11.749Z,45.27
2018-08-30T09:17:39.852Z,42.63
2018-08-30T09:20:08.167Z,43.53
2018-08-30T09:22:38.287Z,37.97
2018-08-30T09:25:06.466Z,35.17
2018-08-30T09:27:35.189Z,33.93
2018-08-30T09:30:03.288Z,32.70
2018-08-30T09:32:31.362Z,32.87
2018-08-30T09:34:59.551Z,34.00
2018-08-30T09:37:27.714Z,31.07
2018-08-30T09:39:55.835Z,31.57
2018-08-30T09:42:23.923Z,29.47
2018-08-30T09:44:52.069Z,31.63
2018-08-30T09:47:20.163Z,26.70
2018-08-30T09:49:48.573Z,27.97
2018-08-30T09:52:16.822Z,29.02
2018-08-30T09:54:44.989Z,27.80
2018-08-30T09:57:13.103Z,27.67
2018-08-30T09:59:41.204Z,29.17
2018-08-30T10:02:14.805Z,30.27
2018-08-30T10:04:43.002Z,31.63
2018-08-30T10:07:11.062Z,32.23
2018-08-30T10:09:39.199Z,33.07
2018-08-30T10:12:07.540Z,33.63
2018-08-30T10:14:35.665Z,31.17
2018-08-30T10:17:03.739Z,30.90
2018-08-30T10:19:31.914Z,29.20
2018-08-30T10:22:00.008Z,28.50
2018-08-30T10:24:28.167Z,28.77
2018-08-30T10:26:56.289Z,27.27
2018-08-30T10:29:24.375Z,26.40
2018-08-30T10:31:52.504Z,25.40
2018-08-30T10:34:20.584Z,23.57
2018-08-30T10:36:48.762Z,23.97
2018-08-30T10:39:16.922Z,24.73
2018-08-30T10:41:45.098Z,22.77
2018-08-30T10:44:13.232Z,23.73
2018-08-30T10:46:42.438Z,22.33
2018-08-30T10:49:10.518Z,21.73
2018-08-30T10:51:38.675Z,22.30
2018-08-30T10:54:06.773Z,22.03
2018-08-30T10:56:41.955Z,21.07
2018-08-30T10:59:10.064Z,19.60
2018-08-30T11:01:38.167Z,19.07
2018-08-30T11:04:06.860Z,18.10
2018-08-30T11:06:34.928Z,15.73
2018-08-30T11:09:03.130Z,16.57
2018-08-30T11:11:31.278Z,16.13
2018-08-30T11:13:59.380Z,15.17
2018-08-30T11:16:27.511Z,15.60
2018-08-30T11:18:55.714Z,16.47
2018-08-30T11:21:23.953Z,15.03
2018-08-30T11:23:52.039Z,14.93
2018-08-30T11:26:20.209Z,14.98
2018-08-30T11:28:48.624Z,14.33
2018-08-30T11:31:16.769Z,14.63
2018-08-30T11:33:44.877Z,14.78
2018-08-30T11:36:12.960Z,15.25
2018-08-30T11:38:46.823Z,15.57
2018-08-30T11:41:16.014Z,17.17
2018-08-30T11:43:44.050Z,16.50
2018-08-30T11:46:12.195Z,16.97
2018-08-30T11:48:40.429Z,15.63
2018-08-30T11:51:08.521Z,17.00
2018-08-30T11:53:36.610Z,15.93
2018-08-30T11:56:04.733Z,15.70
2018-08-30T11:58:34.924Z,15.17
2018-08-30T12:01:03.044Z,14.90
2018-08-30T12:03:32.479Z,13.80
2018-08-30T12:06:02.240Z,14.00
2018-08-30T12:08:30.485Z,13.15
2018-08-30T12:10:59.414Z,12.35
2018-08-30T12:13:27.501Z,13.98
2018-08-30T12:15:55.634Z,13.50
2018-08-30T12:18:25.642Z,13.35
2018-08-30T12:20:53.820Z,13.28
2018-08-30T12:23:22.447Z,12.40
2018-08-30T12:25:50.610Z,12.37
2018-08-30T12:28:18.806Z,13.58
2018-08-30T12:30:46.995Z,13.22
2018-08-30T12:33:15.130Z,12.55
2018-08-30T12:35:44.582Z,12.40
2018-08-30T12:38:12.403Z,12.50
2018-08-30T12:40:40.554Z,11.78
2018-08-30T12:43:08.830Z,11.95
2018-08-30T12:45:36.914Z,12.58
2018-08-30T12:48:05.443Z,12.37
2018-08-30T12:50:39.421Z,12.20
2018-08-30T12:53:09.487Z,12.00
2018-08-30T12:55:37.927Z,12.63
2018-08-30T12:58:06.275Z,14.07
2018-08-30T13:00:35.358Z,13.77
2018-08-30T13:03:03.586Z,13.43
2018-08-30T13:05:31.795Z,13.83
2018-08-30T13:07:59.891Z,14.30
2018-08-30T13:10:27.999Z,14.17
2018-08-30T13:12:56.291Z,13.87
2018-08-30T13:15:24.407Z,14.60
2018-08-30T13:17:52.417Z,13.87
2018-08-30T13:20:20.670Z,14.30
2018-08-30T13:22:48.767Z,13.87
2018-08-30T13:25:16.994Z,13.03
2018-08-30T13:27:45.000Z,12.60
2018-08-30T13:30:13.390Z,12.90
2018-08-30T13:32:41.703Z,12.20
2018-08-30T13:35:09.853Z,13.27
2018-08-30T13:37:37.783Z,12.50
2018-08-30T13:40:06.165Z,13.43
2018-08-30T13:42:34.043Z,13.73
2018-08-30T13:45:02.266Z,15.13
2018-08-30T13:47:30.241Z,15.60
2018-08-30T13:49:58.564Z,16.03
2018-08-30T13:52:26.771Z,15.73
2018-08-30T13:54:54.785Z,16.47
2018-08-30T13:57:23.064Z,17.23
2018-08-30T13:59:51.389Z,17.70
2018-08-30T14:02:19.187Z,17.27
2018-08-30T14:04:47.378Z,18.17
2018-08-30T14:07:15.690Z,16.23
2018-08-30T14:09:43.909Z,15.93
2018-08-30T14:12:12.119Z,15.93
2018-08-30T14:14:40.356Z,15.83
2018-08-30T14:17:08.166Z,16.20
2018-08-30T14:19:36.180Z,15.60
2018-08-30T14:22:04.295Z,15.13
2018-08-30T14:24:32.377Z,15.30
2018-08-30T14:27:00.606Z,14.10
2018-08-30T14:29:28.662Z,14.73
2018-08-30T14:31:56.758Z,14.97
2018-08-30T14:34:24.975Z,14.60
2018-08-30T14:36:53.102Z,13.80
2018-08-30T14:39:21.215Z,14.23
2018-08-30T14:41:49.397Z,13.27
2018-08-30T14:44:17.406Z,14.03
2018-08-30T14:46:45.543Z,13.20
2018-08-30T14:49:13.652Z,12.80
2018-08-30T14:51:41.891Z,12.78
2018-08-30T14:54:10.352Z,12.40
2018-08-30T14:56:39.249Z,12.10
2018-08-30T14:59:07.681Z,12.13
2018-08-30T15:01:35.699Z,11.68
2018-08-30T15:04:04.172Z,11.40
2018-08-30T15:06:32.222Z,11.83
2018-08-30T15:09:00.598Z,11.83
2018-08-30T15:11:28.954Z,11.30
2018-08-30T15:13:57.742Z,10.80
2018-08-30T15:16:25.927Z,11.45
2018-08-30T15:18:54.017Z,11.23
2018-08-30T15:21:22.533Z,10.85
2018-08-30T15:23:50.688Z,11.50
2018-08-30T15:26:18.810Z,11.33
2018-08-30T15:28:46.902Z,11.37
2018-08-30T15:31:15.057Z,11.20
2018-08-30T15:33:43.169Z,12.33
2018-08-30T15:36:11.312Z,11.17
2018-08-30T15:38:39.375Z,11.73
2018-08-30T15:41:08.820Z,11.93
2018-08-30T15:43:36.901Z,11.97
2018-08-30T15:46:05.072Z,12.10
2018-08-30T15:48:33.239Z,12.13
2018-08-30T15:51:01.223Z,12.30
2018-08-30T15:53:29.316Z,13.70
2018-08-30T15:55:57.415Z,13.13
2018-08-30T15:58:25.562Z,14.63
2018-08-30T16:00:54.710Z,16.43
2018-08-30T16:03:22.838Z,18.23
2018-08-30T16:05:50.859Z,17.00
2018-08-30T16:08:18.937Z,19.53
2018-08-30T16:10:47.057Z,20.33
2018-08-30T16:13:15.158Z,22.03
2018-08-30T16:15:43.221Z,22.77
2018-08-30T16:18:11.331Z,22.90
2018-08-30T16:20:39.475Z,27.50
2018-08-30T16:23:14.153Z,26.77
2018-08-30T16:25:42.253Z,27.83
2018-08-30T16:28:10.382Z,30.13
2018-08-30T16:30:39.344Z,31.63
2018-08-30T16:33:07.358Z,31.27
2018-08-30T16:35:35.443Z,33.77
2018-08-30T16:38:03.503Z,33.23
2018-08-30T16:40:31.589Z,33.57
2018-08-30T16:42:59.669Z,30.90
2018-08-30T16:45:27.877Z,33.03
2018-08-30T16:47:56.041Z,32.67
2018-08-30T16:50:24.112Z,31.17
2018-08-30T16:52:52.178Z,32.63
2018-08-30T16:55:20.275Z,28.00
2018-08-30T16:57:48.310Z,28.40
2018-08-30T17:00:16.431Z,25.20
2018-08-30T17:02:44.569Z,25.90
2018-08-30T17:05:12.630Z,23.70
2018-08-30T17:07:40.682Z,24.73
2018-08-30T17:10:08.776Z,26.20
2018-08-30T17:12:37.027Z,23.13
2018-08-30T17:15:06.131Z,24.07
2018-08-30T17:17:34.266Z,22.57
2018-08-30T17:20:02.396Z,24.53
2018-08-30T17:22:30.487Z,22.50
2018-08-30T17:24:58.534Z,22.93
2018-08-30T17:27:26.683Z,22.33
2018-08-30T17:29:54.722Z,22.93
2018-08-30T17:32:22.808Z,22.10
2018-08-30T17:34:51.027Z,23.67
2018-08-30T17:37:19.087Z,20.33
2018-08-30T17:39:47.148Z,21.33
2018-08-30T17:42:15.218Z,21.97
2018-08-30T17:44:43.451Z,21.93
2018-08-30T17:47:11.489Z,21.47
2018-08-30T17:49:39.545Z,22.77
2018-08-30T17:52:07.632Z,22.03
2018-08-30T17:54:35.704Z,21.83
2018-08-30T17:57:03.799Z,22.00
2018-08-30T17:59:31.867Z,21.90
2018-08-30T18:02:00.018Z,21.63
2018-08-30T18:04:28.278Z,21.53
2018-08-30T18:06:56.470Z,21.23
2018-08-30T18:09:24.498Z,19.33
2018-08-30T18:11:52.555Z,18.03
2018-08-30T18:14:20.606Z,19.10
2018-08-30T18:16:49.814Z,16.43
2018-08-30T18:19:17.927Z,16.17
2018-08-30T18:21:47.110Z,13.50
2018-08-30T18:24:15.258Z,11.93
2018-08-30T18:26:43.374Z,11.20
2018-08-30T18:29:11.456Z,11.80
2018-08-30T18:31:40.590Z,11.97
2018-08-30T18:34:08.680Z,11.77
2018-08-30T18:36:36.792Z,11.60
2018-08-30T18:39:08.023Z,10.90
2018-08-30T18:41:36.178Z,10.97
2018-08-30T18:44:04.290Z,10.17
2018-08-30T18:46:32.723Z,10.00
2018-08-30T18:49:00.847Z,10.03
2018-08-30T18:51:29.501Z,10.80
2018-08-30T18:53:57.582Z,9.77
2018-08-30T18:56:26.775Z,10.13
2018-08-30T18:58:55.326Z,9.87
2018-08-30T19:01:23.368Z,9.73
2018-08-30T19:03:51.453Z,10.60
2018-08-30T19:06:19.973Z,10.70
2018-08-30T19:08:48.085Z,10.80
2018-08-30T19:11:16.203Z,10.87
2018-08-30T19:13:45.567Z,12.07
2018-08-30T19:16:19.043Z,10.53
2018-08-30T19:18:52.687Z,10.73
2018-08-30T19:21:20.840Z,11.40
2018-08-30T19:23:49.000Z,10.23
2018-08-30T19:26:19.363Z,10.57
2018-08-30T19:28:47.481Z,9.73
2018-08-30T19:31:15.546Z,9.80
2018-08-30T19:33:43.755Z,9.30
2018-08-30T19:36:17.332Z,8.90
2018-08-30T19:38:45.607Z,9.47
2018-08-30T19:41:20.295Z,8.90
2018-08-30T19:43:51.478Z,8.70
2018-08-30T19:46:20.193Z,8.23
2018-08-30T19:48:48.267Z,8.63
2018-08-30T19:51:16.342Z,8.40
2018-08-30T19:53:44.414Z,7.53
2018-08-30T19:56:13.910Z,7.93
2018-08-30T19:58:42.403Z,8.57
2018-08-30T20:01:10.492Z,7.90
2018-08-30T20:03:38.594Z,8.13
2018-08-30T20:06:07.038Z,8.00
2018-08-30T20:08:35.141Z,8.60
2018-08-30T20:11:03.420Z,8.77
2018-08-30T20:13:31.603Z,8.83
2018-08-30T20:15:59.738Z,8.47
2018-08-30T20:18:27.997Z,9.83
2018-08-30T20:20:56.260Z,10.00
2018-08-30T20:23:24.419Z,9.03
2018-08-30T20:25:52.490Z,8.53
2018-08-30T20:28:20.562Z,8.57
2018-08-30T20:30:48.655Z,8.63
2018-08-30T20:33:22.075Z,8.33
2018-08-30T20:35:50.142Z,6.73
2018-08-30T20:38:18.230Z,5.83
2018-08-30T20:40:46.318Z,5.80
2018-08-30T20:43:14.382Z,5.70
2018-08-30T20:45:42.469Z,6.23
2018-08-30T20:48:10.559Z,5.27
2018-08-30T20:50:38.676Z,5.00
2018-08-30T20:53:06.747Z,4.70
2018-08-30T20:55:34.871Z,4.63
2018-08-30T20:58:02.933Z,4.40
2018-08-30T21:00:37.279Z,4.40
2018-08-30T21:03:05.435Z,4.13
2018-08-30T21:05:33.513Z,3.07
2018-08-30T21:08:01.653Z,3.90
2018-08-30T21:10:29.845Z,2.83
2018-08-30T21:12:57.947Z,3.83
2018-08-30T21:15:26.077Z,2.90
2018-08-30T21:17:54.186Z,2.83
2018-08-30T21:20:22.319Z,3.40
2018-08-30T21:22:50.443Z,2.77
2018-08-30T21:25:18.507Z,2.70
2018-08-30T21:27:46.623Z,3.07
2018-08-30T21:30:14.683Z,3.07
2018-08-30T21:32:42.766Z,2.70
2018-08-30T21:35:10.842Z,2.83
2018-08-30T21:37:38.894Z,3.00
2018-08-30T21:40:06.976Z,2.57
2018-08-30T21:42:35.086Z,3.40
2018-08-30T21:45:03.163Z,2.90
2018-08-30T21:47:31.269Z,3.37
2018-08-30T21:49:59.358Z,3.00
2018-08-30T21:52:27.438Z,2.70
2018-08-30T21:57:48.947Z,3.17
2018-08-30T22:00:17.033Z,2.80
2018-08-30T22:02:45.182Z,3.00
2018-08-30T22:05:13.289Z,2.83
2018-08-30T22:07:41.383Z,2.63
2018-08-30T22:10:09.451Z,2.50
2018-08-30T22:12:37.623Z,2.73
2018-08-30T22:15:05.835Z,2.87
2018-08-30T22:17:34.006Z,3.17
2018-08-30T22:20:02.346Z,2.43
2018-08-30T22:22:30.434Z,2.67
2018-08-30T22:24:58.527Z,2.40
2018-08-30T22:27:26.626Z,3.00
2018-08-30T22:29:54.693Z,3.27
2018-08-30T22:32:22.874Z,3.33
2018-08-30T22:34:51.174Z,2.50
2018-08-30T22:37:19.253Z,2.90
2018-08-30T22:39:47.370Z,2.47
2018-08-30T22:42:15.485Z,2.33
2018-08-30T22:44:43.626Z,2.57
2018-08-30T22:47:11.718Z,3.53
2018-08-30T22:49:39.807Z,3.00
2018-08-30T22:52:07.935Z,2.37
2018-08-30T22:54:36.030Z,2.90
2018-08-30T22:57:04.085Z,2.73
2018-08-30T22:59:32.147Z,2.20
2018-08-30T23:02:00.226Z,2.43
2018-08-30T23:04:28.322Z,2.40
2018-08-30T23:06:56.431Z,2.93
2018-08-30T23:09:24.519Z,2.83
2018-08-30T23:11:52.579Z,2.67
2018-08-30T23:14:20.647Z,3.20
2018-08-30T23:16:48.779Z,2.90
2018-08-30T23:19:16.919Z,1.83
2018-08-30T23:21:44.991Z,3.17
2018-08-30T23:24:13.055Z,2.60
2018-08-30T23:26:41.162Z,3.00
2018-08-30T23:29:09.288Z,2.70
2018-08-30T23:31:37.404Z,3.00
2018-08-30T23:34:05.719Z,2.33
2018-08-30T23:36:33.794Z,2.83
2018-08-30T23:39:01.888Z,2.70
2018-08-30T23:41:29.961Z,2.83
2018-08-30T23:43:58.027Z,2.43
2018-08-30T23:46:26.100Z,2.83
2018-08-30T23:48:54.161Z,2.73
2018-08-30T23:51:22.263Z,2.40
2018-08-30T23:53:50.681Z,3.27
2018-08-30T23:56:18.896Z,2.60
2018-08-30T23:58:58.247Z,2.33
